Terminal Aerodrome Forecast
Issued by NWS Pendleton, OR

Home | Current Version | Previous Version | Text Only | Print | Product List | Glossary On
Versions: 1 2 3 4 5 6 7 8 9 10 11 12 13 14
000
FTUS46 KPDT 161700
TAFPDT
TAF
KPDT 161736Z 1618/1718 22008KT P6SM VCSH SCT050 OVC080
     FM162100 26011KT P6SM BKN050 OVC080
     FM170600 22010KT P6SM BKN050 BKN080 OVC120
     FM170900 17006KT P6SM SCT050 BKN080 OVC100=

USA.gov is the U.S. government's official web portal to all federal, state and local government web resources and services.